sensor_id;sensor_type;location;lat;lon;timestamp;temperature;humidity
68511;SHT31;55512;50.102;19.958;2023-05-24T00:00:03;19.23;70.69
68511;SHT31;55512;50.102;19.958;2023-05-24T00:02:30;19.23;70.80
68511;SHT31;55512;50.102;19.958;2023-05-24T00:04:55;19.24;70.92
68511;SHT31;55512;50.102;19.958;2023-05-24T00:07:24;19.24;71.03
68511;SHT31;55512;50.102;19.958;2023-05-24T00:09:51;19.21;71.33
68511;SHT31;55512;50.102;19.958;2023-05-24T00:12:16;19.19;71.40
68511;SHT31;55512;50.102;19.958;2023-05-24T00:14:42;19.18;71.51
68511;SHT31;55512;50.102;19.958;2023-05-24T00:17:07;19.19;71.56
68511;SHT31;55512;50.102;19.958;2023-05-24T00:19:33;19.18;71.70
68511;SHT31;55512;50.102;19.958;2023-05-24T00:22:02;19.18;71.65
68511;SHT31;55512;50.102;19.958;2023-05-24T00:24:28;19.18;71.79
68511;SHT31;55512;50.102;19.958;2023-05-24T00:26:53;19.18;71.89
68511;SHT31;55512;50.102;19.958;2023-05-24T00:29:19;19.16;71.99
68511;SHT31;55512;50.102;19.958;2023-05-24T00:31:45;19.15;72.00
68511;SHT31;55512;50.102;19.958;2023-05-24T00:34:10;19.14;72.07
68511;SHT31;55512;50.102;19.958;2023-05-24T00:36:36;19.13;72.14
68511;SHT31;55512;50.102;19.958;2023-05-24T00:39:02;19.10;72.19
68511;SHT31;55512;50.102;19.958;2023-05-24T00:41:28;19.09;72.20
68511;SHT31;55512;50.102;19.958;2023-05-24T00:43:54;19.07;72.26
68511;SHT31;55512;50.102;19.958;2023-05-24T00:46:20;19.06;72.28
68511;SHT31;55512;50.102;19.958;2023-05-24T00:48:59;19.05;72.29
68511;SHT31;55512;50.102;19.958;2023-05-24T00:51:25;19.01;72.49
68511;SHT31;55512;50.102;19.958;2023-05-24T00:53:56;18.93;72.64
68511;SHT31;55512;50.102;19.958;2023-05-24T00:56:22;18.90;72.61
68511;SHT31;55512;50.102;19.958;2023-05-24T00:58:48;18.90;72.63
68511;SHT31;55512;50.102;19.958;2023-05-24T01:01:18;18.86;72.81
68511;SHT31;55512;50.102;19.958;2023-05-24T01:03:44;18.85;72.94
68511;SHT31;55512;50.102;19.958;2023-05-24T01:06:10;18.85;73.02
68511;SHT31;55512;50.102;19.958;2023-05-24T01:14:35;18.86;73.21
68511;SHT31;55512;50.102;19.958;2023-05-24T01:19:55;19.10;73.05
68511;SHT31;55512;50.102;19.958;2023-05-24T01:25:38;19.31;72.63
68511;SHT31;55512;50.102;19.958;2023-05-24T01:28:33;19.42;72.38
68511;SHT31;55512;50.102;19.958;2023-05-24T01:30:59;19.49;72.18
68511;SHT31;55512;50.102;19.958;2023-05-24T01:33:26;19.55;71.96
68511;SHT31;55512;50.102;19.958;2023-05-24T01:35:52;19.61;71.78
68511;SHT31;55512;50.102;19.958;2023-05-24T01:38:18;19.67;71.63
68511;SHT31;55512;50.102;19.958;2023-05-24T01:40:43;19.73;71.44
68511;SHT31;55512;50.102;19.958;2023-05-24T01:43:17;19.79;71.24
68511;SHT31;55512;50.102;19.958;2023-05-24T01:49:16;19.88;70.89
68511;SHT31;55512;50.102;19.958;2023-05-24T01:51:55;19.91;70.75
68511;SHT31;55512;50.102;19.958;2023-05-24T01:54:26;19.94;70.63
68511;SHT31;55512;50.102;19.958;2023-05-24T01:56:57;19.97;70.45
68511;SHT31;55512;50.102;19.958;2023-05-24T01:59:25;20.00;70.32
68511;SHT31;55512;50.102;19.958;2023-05-24T02:01:54;20.02;70.23
68511;SHT31;55512;50.102;19.958;2023-05-24T02:04:20;20.06;70.15
68511;SHT31;55512;50.102;19.958;2023-05-24T02:06:45;20.07;70.02
68511;SHT31;55512;50.102;19.958;2023-05-24T02:09:11;20.09;69.96
68511;SHT31;55512;50.102;19.958;2023-05-24T02:11:36;20.11;69.89
68511;SHT31;55512;50.102;19.958;2023-05-24T02:14:02;20.12;69.80
68511;SHT31;55512;50.102;19.958;2023-05-24T02:16:27;20.13;69.72
68511;SHT31;55512;50.102;19.958;2023-05-24T02:18:55;20.14;69.70
68511;SHT31;55512;50.102;19.958;2023-05-24T02:21:21;20.13;69.63
68511;SHT31;55512;50.102;19.958;2023-05-24T02:23:47;20.15;69.60
68511;SHT31;55512;50.102;19.958;2023-05-24T02:26:13;20.15;69.56
68511;SHT31;55512;50.102;19.958;2023-05-24T02:28:41;20.17;69.49
68511;SHT31;55512;50.102;19.958;2023-05-24T02:31:08;20.18;69.43
68511;SHT31;55512;50.102;19.958;2023-05-24T02:33:33;20.18;69.40
68511;SHT31;55512;50.102;19.958;2023-05-24T02:35:59;20.16;69.40
68511;SHT31;55512;50.102;19.958;2023-05-24T02:38:25;20.17;69.40
68511;SHT31;55512;50.102;19.958;2023-05-24T02:40:50;20.15;69.41
68511;SHT31;55512;50.102;19.958;2023-05-24T02:43:16;20.12;69.49
68511;SHT31;55512;50.102;19.958;2023-05-24T02:45:42;20.11;69.50
68511;SHT31;55512;50.102;19.958;2023-05-24T02:48:07;20.10;69.50
68511;SHT31;55512;50.102;19.958;2023-05-24T02:50:32;20.09;69.54
68511;SHT31;55512;50.102;19.958;2023-05-24T02:52:58;20.09;69.57
68511;SHT31;55512;50.102;19.958;2023-05-24T02:55:23;20.07;69.58
68511;SHT31;55512;50.102;19.958;2023-05-24T02:57:49;20.05;69.60
68511;SHT31;55512;50.102;19.958;2023-05-24T03:00:15;20.06;69.60
68511;SHT31;55512;50.102;19.958;2023-05-24T03:02:42;20.04;69.62
68511;SHT31;55512;50.102;19.958;2023-05-24T03:05:08;20.04;69.63
68511;SHT31;55512;50.102;19.958;2023-05-24T03:07:34;20.04;69.64
68511;SHT31;55512;50.102;19.958;2023-05-24T03:09:59;20.04;69.63
68511;SHT31;55512;50.102;19.958;2023-05-24T03:12:25;20.04;69.64
68511;SHT31;55512;50.102;19.958;2023-05-24T03:14:50;20.05;69.63
68511;SHT31;55512;50.102;19.958;2023-05-24T03:17:16;20.05;69.63
68511;SHT31;55512;50.102;19.958;2023-05-24T03:19:42;20.06;69.61
68511;SHT31;55512;50.102;19.958;2023-05-24T03:22:07;20.07;69.62
68511;SHT31;55512;50.102;19.958;2023-05-24T03:24:33;20.09;69.59
68511;SHT31;55512;50.102;19.958;2023-05-24T03:26:58;20.10;69.51
68511;SHT31;55512;50.102;19.958;2023-05-24T03:29:25;20.11;69.49
68511;SHT31;55512;50.102;19.958;2023-05-24T03:31:50;20.09;69.38
68511;SHT31;55512;50.102;19.958;2023-05-24T03:34:16;20.00;69.42
68511;SHT31;55512;50.102;19.958;2023-05-24T03:36:41;19.86;69.61
68511;SHT31;55512;50.102;19.958;2023-05-24T03:39:07;19.77;69.86
68511;SHT31;55512;50.102;19.958;2023-05-24T03:41:33;19.70;69.96
68511;SHT31;55512;50.102;19.958;2023-05-24T03:43:59;19.58;70.19
68511;SHT31;55512;50.102;19.958;2023-05-24T03:46:25;19.51;70.36
68511;SHT31;55512;50.102;19.958;2023-05-24T03:48:50;19.49;70.47
68511;SHT31;55512;50.102;19.958;2023-05-24T03:51:16;19.45;70.40
68511;SHT31;55512;50.102;19.958;2023-05-24T03:53:41;19.38;70.49
68511;SHT31;55512;50.102;19.958;2023-05-24T03:56:07;19.26;70.60
68511;SHT31;55512;50.102;19.958;2023-05-24T03:58:32;19.18;70.71
68511;SHT31;55512;50.102;19.958;2023-05-24T04:00:58;19.14;70.69
68511;SHT31;55512;50.102;19.958;2023-05-24T04:03:25;19.07;70.67
68511;SHT31;55512;50.102;19.958;2023-05-24T04:05:50;19.01;70.79
68511;SHT31;55512;50.102;19.958;2023-05-24T04:08:17;18.97;70.83
68511;SHT31;55512;50.102;19.958;2023-05-24T04:10:42;18.91;70.87
68511;SHT31;55512;50.102;19.958;2023-05-24T04:13:09;18.84;70.87
68511;SHT31;55512;50.102;19.958;2023-05-24T04:15:34;18.77;70.90
68511;SHT31;55512;50.102;19.958;2023-05-24T04:18:01;18.76;70.92
68511;SHT31;55512;50.102;19.958;2023-05-24T04:20:27;18.70;71.00
68511;SHT31;55512;50.102;19.958;2023-05-24T04:22:53;18.66;71.08
68511;SHT31;55512;50.102;19.958;2023-05-24T04:25:20;18.62;71.14
68511;SHT31;55512;50.102;19.958;2023-05-24T04:27:46;18.59;71.29
68511;SHT31;55512;50.102;19.958;2023-05-24T04:30:14;18.53;71.32
68511;SHT31;55512;50.102;19.958;2023-05-24T04:32:40;18.47;71.49
68511;SHT31;55512;50.102;19.958;2023-05-24T04:35:10;18.42;71.51
68511;SHT31;55512;50.102;19.958;2023-05-24T04:37:36;18.37;71.51
68511;SHT31;55512;50.102;19.958;2023-05-24T04:40:01;18.33;71.52
68511;SHT31;55512;50.102;19.958;2023-05-24T04:42:31;18.29;71.56
68511;SHT31;55512;50.102;19.958;2023-05-24T04:44:57;18.25;71.64
68511;SHT31;55512;50.102;19.958;2023-05-24T04:47:23;18.19;71.78
68511;SHT31;55512;50.102;19.958;2023-05-24T04:49:49;18.13;71.89
68511;SHT31;55512;50.102;19.958;2023-05-24T04:52:15;18.07;72.03
68511;SHT31;55512;50.102;19.958;2023-05-24T04:54:41;18.00;72.10
68511;SHT31;55512;50.102;19.958;2023-05-24T04:57:07;17.94;72.16
68511;SHT31;55512;50.102;19.958;2023-05-24T04:59:32;17.88;72.34
68511;SHT31;55512;50.102;19.958;2023-05-24T05:01:58;17.86;72.43
68511;SHT31;55512;50.102;19.958;2023-05-24T05:04:24;17.85;72.46
68511;SHT31;55512;50.102;19.958;2023-05-24T05:06:49;17.84;72.58
68511;SHT31;55512;50.102;19.958;2023-05-24T05:09:15;17.78;72.78
68511;SHT31;55512;50.102;19.958;2023-05-24T05:11:40;17.77;72.84
68511;SHT31;55512;50.102;19.958;2023-05-24T05:14:06;17.78;72.86
68511;SHT31;55512;50.102;19.958;2023-05-24T05:16:35;17.76;72.90
68511;SHT31;55512;50.102;19.958;2023-05-24T05:19:02;17.73;72.87
68511;SHT31;55512;50.102;19.958;2023-05-24T05:21:29;17.71;72.90
68511;SHT31;55512;50.102;19.958;2023-05-24T05:24:01;17.69;72.91
68511;SHT31;55512;50.102;19.958;2023-05-24T05:26:27;17.67;73.01
68511;SHT31;55512;50.102;19.958;2023-05-24T05:28:53;17.68;73.09
68511;SHT31;55512;50.102;19.958;2023-05-24T05:31:20;17.71;72.96
68511;SHT31;55512;50.102;19.958;2023-05-24T05:33:46;17.72;72.94
68511;SHT31;55512;50.102;19.958;2023-05-24T05:36:12;17.74;72.95
68511;SHT31;55512;50.102;19.958;2023-05-24T05:38:37;17.74;72.90
68511;SHT31;55512;50.102;19.958;2023-05-24T05:41:03;17.76;72.90
68511;SHT31;55512;50.102;19.958;2023-05-24T05:43:29;17.79;72.89
68511;SHT31;55512;50.102;19.958;2023-05-24T05:45:55;17.78;73.03
68511;SHT31;55512;50.102;19.958;2023-05-24T05:48:21;17.78;73.14
68511;SHT31;55512;50.102;19.958;2023-05-24T05:50:47;17.82;73.01
68511;SHT31;55512;50.102;19.958;2023-05-24T05:53:13;17.83;72.96
68511;SHT31;55512;50.102;19.958;2023-05-24T05:55:40;17.84;72.85
68511;SHT31;55512;50.102;19.958;2023-05-24T05:58:05;17.87;72.89
68511;SHT31;55512;50.102;19.958;2023-05-24T06:00:31;17.89;72.89
68511;SHT31;55512;50.102;19.958;2023-05-24T06:02:57;17.92;72.86
68511;SHT31;55512;50.102;19.958;2023-05-24T06:05:22;17.96;72.89
68511;SHT31;55512;50.102;19.958;2023-05-24T06:07:48;18.00;72.76
68511;SHT31;55512;50.102;19.958;2023-05-24T06:10:13;18.04;72.63
68511;SHT31;55512;50.102;19.958;2023-05-24T06:12:39;18.08;72.71
68511;SHT31;55512;50.102;19.958;2023-05-24T06:15:05;18.12;72.81
68511;SHT31;55512;50.102;19.958;2023-05-24T06:17:32;18.14;72.76
68511;SHT31;55512;50.102;19.958;2023-05-24T06:19:58;18.19;72.81
68511;SHT31;55512;50.102;19.958;2023-05-24T06:22:24;18.25;72.72
68511;SHT31;55512;50.102;19.958;2023-05-24T06:24:53;18.30;72.47
68511;SHT31;55512;50.102;19.958;2023-05-24T06:27:19;18.34;72.40
68511;SHT31;55512;50.102;19.958;2023-05-24T06:29:45;18.37;72.31
68511;SHT31;55512;50.102;19.958;2023-05-24T06:32:10;18.41;72.03
68511;SHT31;55512;50.102;19.958;2023-05-24T06:34:36;18.43;72.04
68511;SHT31;55512;50.102;19.958;2023-05-24T06:37:01;18.47;72.02
68511;SHT31;55512;50.102;19.958;2023-05-24T06:39:27;18.51;72.01
68511;SHT31;55512;50.102;19.958;2023-05-24T06:41:52;18.50;71.80
68511;SHT31;55512;50.102;19.958;2023-05-24T06:44:18;18.54;71.58
68511;SHT31;55512;50.102;19.958;2023-05-24T06:46:43;18.56;71.66
68511;SHT31;55512;50.102;19.958;2023-05-24T06:49:10;18.56;71.73
68511;SHT31;55512;50.102;19.958;2023-05-24T06:51:36;18.59;71.80
68511;SHT31;55512;50.102;19.958;2023-05-24T06:54:02;18.61;71.67
68511;SHT31;55512;50.102;19.958;2023-05-24T06:56:28;18.60;71.59
68511;SHT31;55512;50.102;19.958;2023-05-24T06:58:54;18.61;71.71
68511;SHT31;55512;50.102;19.958;2023-05-24T07:01:20;18.63;71.70
68511;SHT31;55512;50.102;19.958;2023-05-24T07:03:47;18.64;71.65
68511;SHT31;55512;50.102;19.958;2023-05-24T07:06:12;18.64;71.43
68511;SHT31;55512;50.102;19.958;2023-05-24T07:08:39;18.65;71.30
68511;SHT31;55512;50.102;19.958;2023-05-24T07:11:08;18.67;71.46
68511;SHT31;55512;50.102;19.958;2023-05-24T07:13:34;18.66;71.43
68511;SHT31;55512;50.102;19.958;2023-05-24T07:15:59;18.67;71.41
68511;SHT31;55512;50.102;19.958;2023-05-24T07:18:25;18.70;71.54
68511;SHT31;55512;50.102;19.958;2023-05-24T07:20:50;18.73;71.53
68511;SHT31;55512;50.102;19.958;2023-05-24T07:23:16;18.78;71.40
68511;SHT31;55512;50.102;19.958;2023-05-24T07:25:41;18.81;71.41
68511;SHT31;55512;50.102;19.958;2023-05-24T07:28:07;18.82;71.56
68511;SHT31;55512;50.102;19.958;2023-05-24T07:30:32;18.86;71.49
68511;SHT31;55512;50.102;19.958;2023-05-24T07:32:58;18.88;71.44
68511;SHT31;55512;50.102;19.958;2023-05-24T07:35:24;18.94;71.26
68511;SHT31;55512;50.102;19.958;2023-05-24T07:37:50;19.00;71.19
68511;SHT31;55512;50.102;19.958;2023-05-24T07:40:15;19.01;71.13
68511;SHT31;55512;50.102;19.958;2023-05-24T07:42:41;19.06;71.06
68511;SHT31;55512;50.102;19.958;2023-05-24T07:45:07;19.13;70.92
68511;SHT31;55512;50.102;19.958;2023-05-24T07:47:34;19.18;70.80
68511;SHT31;55512;50.102;19.958;2023-05-24T07:50:00;19.23;70.70
68511;SHT31;55512;50.102;19.958;2023-05-24T07:52:25;19.18;70.53
68511;SHT31;55512;50.102;19.958;2023-05-24T07:54:51;19.09;70.67
68511;SHT31;55512;50.102;19.958;2023-05-24T07:57:17;19.08;70.71
68511;SHT31;55512;50.102;19.958;2023-05-24T07:59:44;18.98;70.58
68511;SHT31;55512;50.102;19.958;2023-05-24T08:02:09;18.82;70.33
68511;SHT31;55512;50.102;19.958;2023-05-24T08:04:40;18.65;70.50
68511;SHT31;55512;50.102;19.958;2023-05-24T08:07:05;18.55;70.67
68511;SHT31;55512;50.102;19.958;2023-05-24T08:09:31;18.43;70.76
68511;SHT31;55512;50.102;19.958;2023-05-24T08:12:09;18.29;70.93
68511;SHT31;55512;50.102;19.958;2023-05-24T08:14:35;18.17;71.13
68511;SHT31;55512;50.102;19.958;2023-05-24T08:17:00;18.04;71.35
68511;SHT31;55512;50.102;19.958;2023-05-24T08:19:26;17.90;71.52
68511;SHT31;55512;50.102;19.958;2023-05-24T08:21:55;17.84;71.68
68511;SHT31;55512;50.102;19.958;2023-05-24T08:24:21;17.78;71.80
68511;SHT31;55512;50.102;19.958;2023-05-24T08:26:47;17.73;71.88
68511;SHT31;55512;50.102;19.958;2023-05-24T08:29:13;17.64;72.07
68511;SHT31;55512;50.102;19.958;2023-05-24T08:31:41;17.53;72.19
68511;SHT31;55512;50.102;19.958;2023-05-24T08:34:07;17.49;72.30
68511;SHT31;55512;50.102;19.958;2023-05-24T08:36:32;17.48;72.44
68511;SHT31;55512;50.102;19.958;2023-05-24T08:38:58;17.42;72.61
68511;SHT31;55512;50.102;19.958;2023-05-24T08:41:24;17.37;72.60
68511;SHT31;55512;50.102;19.958;2023-05-24T08:43:51;17.30;72.75
68511;SHT31;55512;50.102;19.958;2023-05-24T08:46:20;17.25;72.86
68511;SHT31;55512;50.102;19.958;2023-05-24T08:48:46;17.17;73.05
68511;SHT31;55512;50.102;19.958;2023-05-24T08:51:14;17.13;73.20
68511;SHT31;55512;50.102;19.958;2023-05-24T08:53:44;17.09;73.38
68511;SHT31;55512;50.102;19.958;2023-05-24T08:56:17;17.06;73.42
68511;SHT31;55512;50.102;19.958;2023-05-24T08:58:43;17.01;73.55
68511;SHT31;55512;50.102;19.958;2023-05-24T09:01:11;16.99;73.73
68511;SHT31;55512;50.102;19.958;2023-05-24T09:03:39;16.98;73.81
68511;SHT31;55512;50.102;19.958;2023-05-24T09:06:08;16.97;73.89
68511;SHT31;55512;50.102;19.958;2023-05-24T09:08:36;16.99;73.98
68511;SHT31;55512;50.102;19.958;2023-05-24T09:11:02;17.01;73.90
68511;SHT31;55512;50.102;19.958;2023-05-24T09:13:31;17.03;73.91
68511;SHT31;55512;50.102;19.958;2023-05-24T09:15:58;17.06;73.96
68511;SHT31;55512;50.102;19.958;2023-05-24T09:18:25;17.05;73.89
68511;SHT31;55512;50.102;19.958;2023-05-24T09:20:51;17.04;73.83
68511;SHT31;55512;50.102;19.958;2023-05-24T09:23:17;17.04;73.85
68511;SHT31;55512;50.102;19.958;2023-05-24T09:25:43;17.03;73.86
68511;SHT31;55512;50.102;19.958;2023-05-24T09:28:11;17.03;73.84
68511;SHT31;55512;50.102;19.958;2023-05-24T09:30:43;17.06;73.66
68511;SHT31;55512;50.102;19.958;2023-05-24T09:36:17;17.09;73.34
68511;SHT31;55512;50.102;19.958;2023-05-24T09:41:35;17.13;73.09
68511;SHT31;55512;50.102;19.958;2023-05-24T09:44:01;17.16;73.09
68511;SHT31;55512;50.102;19.958;2023-05-24T09:46:27;17.15;73.16
68511;SHT31;55512;50.102;19.958;2023-05-24T09:48:54;17.15;73.40
68511;SHT31;55512;50.102;19.958;2023-05-24T09:51:21;17.15;73.40
68511;SHT31;55512;50.102;19.958;2023-05-24T09:53:48;17.16;73.44
68511;SHT31;55512;50.102;19.958;2023-05-24T09:56:16;17.17;73.63
68511;SHT31;55512;50.102;19.958;2023-05-24T09:58:43;17.12;73.75
68511;SHT31;55512;50.102;19.958;2023-05-24T10:01:10;17.10;73.71
68511;SHT31;55512;50.102;19.958;2023-05-24T10:03:36;17.11;73.65
68511;SHT31;55512;50.102;19.958;2023-05-24T10:06:05;17.13;73.51
68511;SHT31;55512;50.102;19.958;2023-05-24T10:08:34;17.14;73.43
68511;SHT31;55512;50.102;19.958;2023-05-24T10:11:03;17.15;73.39
68511;SHT31;55512;50.102;19.958;2023-05-24T10:13:31;17.15;73.30
68511;SHT31;55512;50.102;19.958;2023-05-24T10:16:00;17.21;73.25
68511;SHT31;55512;50.102;19.958;2023-05-24T10:18:27;17.25;73.07
68511;SHT31;55512;50.102;19.958;2023-05-24T10:20:53;17.27;72.97
68511;SHT31;55512;50.102;19.958;2023-05-24T10:23:23;17.27;72.84
68511;SHT31;55512;50.102;19.958;2023-05-24T10:26:03;17.28;72.70
68511;SHT31;55512;50.102;19.958;2023-05-24T10:28:33;17.27;72.49
68511;SHT31;55512;50.102;19.958;2023-05-24T10:31:09;17.20;72.47
68511;SHT31;55512;50.102;19.958;2023-05-24T10:33:39;17.22;72.40
68511;SHT31;55512;50.102;19.958;2023-05-24T10:36:08;17.19;72.48
68511;SHT31;55512;50.102;19.958;2023-05-24T10:38:37;17.19;72.44
68511;SHT31;55512;50.102;19.958;2023-05-24T10:41:04;17.09;72.48
68511;SHT31;55512;50.102;19.958;2023-05-24T10:43:32;16.99;72.68
68511;SHT31;55512;50.102;19.958;2023-05-24T10:46:02;17.00;72.70
68511;SHT31;55512;50.102;19.958;2023-05-24T10:48:36;16.98;72.66
68511;SHT31;55512;50.102;19.958;2023-05-24T10:54:10;16.90;72.68
68511;SHT31;55512;50.102;19.958;2023-05-24T10:56:42;16.91;72.68
68511;SHT31;55512;50.102;19.958;2023-05-24T10:59:27;16.91;72.71
68511;SHT31;55512;50.102;19.958;2023-05-24T11:01:53;16.93;72.65
68511;SHT31;55512;50.102;19.958;2023-05-24T11:04:21;16.91;72.55
68511;SHT31;55512;50.102;19.958;2023-05-24T11:06:57;16.92;72.48
68511;SHT31;55512;50.102;19.958;2023-05-24T11:09:27;16.93;72.39
68511;SHT31;55512;50.102;19.958;2023-05-24T11:11:58;16.88;72.37
68511;SHT31;55512;50.102;19.958;2023-05-24T11:14:32;16.77;72.51
68511;SHT31;55512;50.102;19.958;2023-05-24T11:17:01;16.73;72.55
68511;SHT31;55512;50.102;19.958;2023-05-24T11:19:32;16.72;72.67
68511;SHT31;55512;50.102;19.958;2023-05-24T11:22:10;16.68;72.67
68511;SHT31;55512;50.102;19.958;2023-05-24T11:24:41;16.68;72.60
68511;SHT31;55512;50.102;19.958;2023-05-24T11:27:09;16.71;72.53
68511;SHT31;55512;50.102;19.958;2023-05-24T11:29:40;16.76;72.45
68511;SHT31;55512;50.102;19.958;2023-05-24T11:32:08;16.82;72.36
68511;SHT31;55512;50.102;19.958;2023-05-24T11:34:34;16.90;72.19
68511;SHT31;55512;50.102;19.958;2023-05-24T11:37:01;16.91;72.04
68511;SHT31;55512;50.102;19.958;2023-05-24T11:39:33;16.91;72.02
68511;SHT31;55512;50.102;19.958;2023-05-24T11:42:05;16.90;71.82
68511;SHT31;55512;50.102;19.958;2023-05-24T11:44:33;16.84;71.80
68511;SHT31;55512;50.102;19.958;2023-05-24T11:47:04;16.84;71.80
68511;SHT31;55512;50.102;19.958;2023-05-24T11:49:32;16.82;71.72
68511;SHT31;55512;50.102;19.958;2023-05-24T11:51:59;16.77;71.65
68511;SHT31;55512;50.102;19.958;2023-05-24T11:54:26;16.79;71.66
68511;SHT31;55512;50.102;19.958;2023-05-24T11:56:53;16.77;71.63
68511;SHT31;55512;50.102;19.958;2023-05-24T11:59:23;16.82;71.50
68511;SHT31;55512;50.102;19.958;2023-05-24T12:01:57;16.84;71.35
68511;SHT31;55512;50.102;19.958;2023-05-24T12:04:30;16.86;71.29
68511;SHT31;55512;50.102;19.958;2023-05-24T12:06:57;16.89;71.12
68511;SHT31;55512;50.102;19.958;2023-05-24T12:09:23;16.90;71.03
68511;SHT31;55512;50.102;19.958;2023-05-24T12:11:50;16.91;70.97
68511;SHT31;55512;50.102;19.958;2023-05-24T12:14:24;16.92;70.88
68511;SHT31;55512;50.102;19.958;2023-05-24T12:16:54;16.97;70.86
68511;SHT31;55512;50.102;19.958;2023-05-24T12:19:21;17.00;70.70
68511;SHT31;55512;50.102;19.958;2023-05-24T12:21:57;17.02;70.63
68511;SHT31;55512;50.102;19.958;2023-05-24T12:24:24;17.02;70.41
68511;SHT31;55512;50.102;19.958;2023-05-24T12:26:51;17.03;70.45
68511;SHT31;55512;50.102;19.958;2023-05-24T12:29:22;17.11;70.45
68511;SHT31;55512;50.102;19.958;2023-05-24T12:31:48;17.24;70.13
68511;SHT31;55512;50.102;19.958;2023-05-24T12:34:14;17.28;69.81
68511;SHT31;55512;50.102;19.958;2023-05-24T12:36:42;17.33;69.63
68511;SHT31;55512;50.102;19.958;2023-05-24T12:39:15;17.35;69.47
68511;SHT31;55512;50.102;19.958;2023-05-24T12:41:52;17.36;69.14
68511;SHT31;55512;50.102;19.958;2023-05-24T12:44:23;17.32;69.19
68511;SHT31;55512;50.102;19.958;2023-05-24T12:46:51;17.34;69.20
68511;SHT31;55512;50.102;19.958;2023-05-24T12:49:18;17.36;69.09
68511;SHT31;55512;50.102;19.958;2023-05-24T12:51:44;17.38;69.03
68511;SHT31;55512;50.102;19.958;2023-05-24T12:54:09;17.39;68.94
68511;SHT31;55512;50.102;19.958;2023-05-24T12:56:35;17.31;68.84
68511;SHT31;55512;50.102;19.958;2023-05-24T12:59:00;17.24;68.81
68511;SHT31;55512;50.102;19.958;2023-05-24T13:01:26;17.21;68.93
68511;SHT31;55512;50.102;19.958;2023-05-24T13:03:52;17.21;69.01
68511;SHT31;55512;50.102;19.958;2023-05-24T13:06:17;17.24;69.14
68511;SHT31;55512;50.102;19.958;2023-05-24T13:08:43;17.30;68.99
68511;SHT31;55512;50.102;19.958;2023-05-24T13:11:09;17.32;68.89
68511;SHT31;55512;50.102;19.958;2023-05-24T13:16:10;17.35;68.79
68511;SHT31;55512;50.102;19.958;2023-05-24T13:18:36;17.30;68.56
68511;SHT31;55512;50.102;19.958;2023-05-24T13:21:05;17.33;68.59
68511;SHT31;55512;50.102;19.958;2023-05-24T13:23:34;17.40;68.51
68511;SHT31;55512;50.102;19.958;2023-05-24T13:26:03;17.47;68.43
68511;SHT31;55512;50.102;19.958;2023-05-24T13:28:31;17.54;68.13
68511;SHT31;55512;50.102;19.958;2023-05-24T13:33:31;17.57;67.60
68511;SHT31;55512;50.102;19.958;2023-05-24T13:35:57;17.67;67.49
68511;SHT31;55512;50.102;19.958;2023-05-24T13:38:23;17.72;67.42
68511;SHT31;55512;50.102;19.958;2023-05-24T13:40:49;17.73;67.31
68511;SHT31;55512;50.102;19.958;2023-05-24T13:43:17;17.72;67.14
68511;SHT31;55512;50.102;19.958;2023-05-24T13:45:43;17.66;67.00
68511;SHT31;55512;50.102;19.958;2023-05-24T13:48:09;17.62;67.02
68511;SHT31;55512;50.102;19.958;2023-05-24T13:50:35;17.63;67.08
68511;SHT31;55512;50.102;19.958;2023-05-24T13:53:02;17.59;66.83
68511;SHT31;55512;50.102;19.958;2023-05-24T13:55:30;17.58;66.72
68511;SHT31;55512;50.102;19.958;2023-05-24T13:57:58;17.57;66.78
68511;SHT31;55512;50.102;19.958;2023-05-24T14:00:24;17.52;66.76
68511;SHT31;55512;50.102;19.958;2023-05-24T14:02:50;17.48;66.73
68511;SHT31;55512;50.102;19.958;2023-05-24T14:05:16;17.48;66.86
68511;SHT31;55512;50.102;19.958;2023-05-24T14:07:43;17.51;66.94
68511;SHT31;55512;50.102;19.958;2023-05-24T14:10:09;17.56;66.83
68511;SHT31;55512;50.102;19.958;2023-05-24T14:12:35;17.63;66.69
68511;SHT31;55512;50.102;19.958;2023-05-24T14:15:01;17.65;66.60
68511;SHT31;55512;50.102;19.958;2023-05-24T14:17:28;17.62;66.54
68511;SHT31;55512;50.102;19.958;2023-05-24T14:19:55;17.61;66.45
68511;SHT31;55512;50.102;19.958;2023-05-24T14:22:20;17.61;66.34
68511;SHT31;55512;50.102;19.958;2023-05-24T14:24:47;17.61;66.47
68511;SHT31;55512;50.102;19.958;2023-05-24T14:27:12;17.58;66.48
68511;SHT31;55512;50.102;19.958;2023-05-24T14:29:38;17.62;66.60
68511;SHT31;55512;50.102;19.958;2023-05-24T14:32:03;17.69;66.58
68511;SHT31;55512;50.102;19.958;2023-05-24T14:34:29;17.75;66.47
68511;SHT31;55512;50.102;19.958;2023-05-24T14:36:55;17.78;66.36
68511;SHT31;55512;50.102;19.958;2023-05-24T14:39:20;17.76;66.18
68511;SHT31;55512;50.102;19.958;2023-05-24T14:41:46;17.70;65.97
68511;SHT31;55512;50.102;19.958;2023-05-24T14:44:12;17.66;66.06
68511;SHT31;55512;50.102;19.958;2023-05-24T14:46:38;17.64;66.06
68511;SHT31;55512;50.102;19.958;2023-05-24T14:49:05;17.61;66.17
68511;SHT31;55512;50.102;19.958;2023-05-24T14:51:30;17.61;66.11
68511;SHT31;55512;50.102;19.958;2023-05-24T14:53:56;17.62;66.14
68511;SHT31;55512;50.102;19.958;2023-05-24T14:56:22;17.64;66.31
68511;SHT31;55512;50.102;19.958;2023-05-24T14:58:47;17.69;66.28
68511;SHT31;55512;50.102;19.958;2023-05-24T15:01:13;17.71;66.25
68511;SHT31;55512;50.102;19.958;2023-05-24T15:03:38;17.69;65.94
68511;SHT31;55512;50.102;19.958;2023-05-24T15:06:04;17.67;66.09
68511;SHT31;55512;50.102;19.958;2023-05-24T15:08:30;17.68;66.17
68511;SHT31;55512;50.102;19.958;2023-05-24T15:10:56;17.70;66.23
68511;SHT31;55512;50.102;19.958;2023-05-24T15:13:22;17.66;66.26
68511;SHT31;55512;50.102;19.958;2023-05-24T15:15:49;17.67;66.36
68511;SHT31;55512;50.102;19.958;2023-05-24T15:18:17;17.69;66.27
68511;SHT31;55512;50.102;19.958;2023-05-24T15:20:43;17.69;66.05
68511;SHT31;55512;50.102;19.958;2023-05-24T15:23:09;17.68;65.93
68511;SHT31;55512;50.102;19.958;2023-05-24T15:25:35;17.63;65.92
68511;SHT31;55512;50.102;19.958;2023-05-24T15:28:01;17.62;65.95
68511;SHT31;55512;50.102;19.958;2023-05-24T15:30:27;17.61;65.86
68511;SHT31;55512;50.102;19.958;2023-05-24T15:32:53;17.58;65.88
68511;SHT31;55512;50.102;19.958;2023-05-24T15:35:19;17.58;65.93
68511;SHT31;55512;50.102;19.958;2023-05-24T15:37:45;17.59;66.00
68511;SHT31;55512;50.102;19.958;2023-05-24T15:40:11;17.59;65.97
68511;SHT31;55512;50.102;19.958;2023-05-24T15:42:37;17.59;65.98